Time;durP1;ratioP1;P1;durP2;ratioP2;P2;SDS_P1;SDS_P2;PMS_P1;PMS_P2;Temp;Humidity;BMP_temperature;BMP_pressure;BME280_temperature;BME280_humidity;BME280_pressure;Samples;Min_cycle;Max_cycle;Signal;HPM_P1;HPM_P2
2022/01/02 00:01:49;;;;;;;;;;;;;;;16.02;47.72;100022.50;4472585;32;34943;-82
2022/01/02 00:04:35;;;;;;;;;;;;;;;15.68;47.44;100013.59;4469846;32;36002;-84
2022/01/02 00:07:21;;;;;;;;;;;;;;;16.18;47.85;100015.56;4482316;32;35760;-82
2022/01/02 00:10:07;;;;;;;;;;;;;;;15.57;49.98;100010.91;4483302;32;34894;-84
2022/01/02 00:12:57;;;;;;;;;;;;;;;15.26;51.17;100012.41;4483141;32;34499;-82
2022/01/02 00:15:42;;;;;;;;;;;;;;;16.19;48.73;100003.37;4482279;32;35158;-83
2022/01/02 00:18:28;;;;;;;;;;;;;;;16.24;48.04;100014.72;4479596;32;34590;-84
2022/01/02 00:21:14;;;;;;;;;;;;;;;16.20;47.53;100003.34;4482314;32;35073;-83
2022/01/02 00:24:04;;;;;;;;;;;;;;;16.74;46.22;100006.13;4482727;32;35837;-86
2022/01/02 00:26:53;;;;;;;;;;;;;;;16.70;45.48;100014.81;4478816;32;35090;-86
2022/01/02 00:29:45;;;;;;;;;;;;;;;17.00;44.32;100007.00;4477936;32;34888;-81
2022/01/02 00:32:32;;;;;;;;;;;;;;;16.39;45.35;100020.00;4481634;32;34954;-86
2022/01/02 00:35:18;;;;;;;;;;;;;;;16.52;44.61;100008.69;4483880;32;34987;-87
2022/01/02 00:38:04;;;;;;;;;;;;;;;16.44;45.29;100010.44;4483133;32;35993;-84
2022/01/02 00:40:51;;;;;;;;;;;;;;;16.54;44.55;100003.44;4482615;32;34368;-87
2022/01/02 00:43:42;;;;;;;;;;;;;;;16.51;44.98;100006.91;4483308;32;34094;-83
2022/01/02 00:46:27;;;;;;;;;;;;;;;16.14;45.98;100010.31;4483231;32;35948;-82
2022/01/02 00:49:14;;;;;;;;;;;;;;;14.96;51.41;100018.25;4466830;32;35171;-83
2022/01/02 00:52:03;;;;;;;;;;;;;;;15.89;48.50;100015.44;4470962;32;34873;-86
2022/01/02 00:54:49;;;;;;;;;;;;;;;14.71;51.71;100017.19;4483488;32;34142;-86
2022/01/02 00:57:39;;;;;;;;;;;;;;;15.35;50.94;100021.19;4483217;32;34862;-83
2022/01/02 01:00:26;;;;;;;;;;;;;;;15.83;49.32;100023.25;4483082;32;35134;-83
2022/01/02 01:03:12;;;;;;;;;;;;;;;16.00;48.06;100020.72;4482181;32;34500;-84
2022/01/02 01:06:02;;;;;;;;;;;;;;;14.87;50.93;100018.19;4482531;32;34700;-84
2022/01/02 01:08:48;;;;;;;;;;;;;;;15.14;51.52;100014.06;4481431;31;34547;-87
2022/01/02 01:11:34;;;;;;;;;;;;;;;15.43;48.82;100020.37;4481488;32;35144;-84
2022/01/02 01:14:20;;;;;;;;;;;;;;;15.54;49.00;100013.47;4482418;32;35176;-87
2022/01/02 01:17:06;;;;;;;;;;;;;;;15.32;49.75;100006.37;4481712;32;34352;-84
2022/01/02 01:19:53;;;;;;;;;;;;;;;14.43;51.86;100013.37;4482217;32;34865;-83
2022/01/02 01:22:40;;;;;;;;;;;;;;;14.27;54.09;100008.84;4482458;32;36143;-87
2022/01/02 01:25:25;;;;;;;;;;;;;;;15.16;50.96;100014.97;4483096;32;35344;-87
2022/01/02 01:28:12;;;;;;;;;;;;;;;14.67;51.38;100014.53;4483324;32;34977;-83
2022/01/02 01:30:59;;;;;;;;;;;;;;;14.91;51.76;100013.87;4467871;32;34880;-86
2022/01/02 01:33:44;;;;;;;;;;;;;;;14.96;51.74;100002.59;4481432;32;35724;-83
2022/01/02 01:36:30;;;;;;;;;;;;;;;14.86;51.79;100002.53;4483535;32;35698;-87
2022/01/02 01:39:16;;;;;;;;;;;;;;;14.79;50.73;99998.97;4483086;32;34911;-87
2022/01/02 01:42:09;;;;;;;;;;;;;;;14.90;50.49;99997.34;4482651;32;35005;-87
2022/01/02 01:48:10;;;;;;;;;;;;;;;14.96;51.16;100007.81;4470281;32;34911;-87
2022/01/02 01:50:56;;;;;;;;;;;;;;;15.33;48.82;99995.03;4483166;31;34152;-83
2022/01/02 01:53:41;;;;;;;;;;;;;;;15.31;50.31;99999.41;4481702;32;34481;-84
2022/01/02 01:56:28;;;;;;;;;;;;;;;15.39;50.08;100000.31;4482003;32;36665;-87
2022/01/02 01:59:15;;;;;;;;;;;;;;;15.58;47.79;99993.47;4481773;31;34916;-83
2022/01/02 02:02:02;;;;;;;;;;;;;;;15.50;48.44;99990.81;4482617;32;34051;-84
2022/01/02 02:04:49;;;;;;;;;;;;;;;15.45;48.53;99997.72;4482932;32;34960;-85
2022/01/02 02:07:41;;;;;;;;;;;;;;;14.95;49.81;99990.41;4482455;32;34720;-85
2022/01/02 02:10:38;;;;;;;;;;;;;;;14.88;50.91;99996.44;4482038;32;35122;-83
2022/01/02 02:13:24;;;;;;;;;;;;;;;14.75;51.73;99991.97;4481662;32;35207;-83
2022/01/02 02:16:11;;;;;;;;;;;;;;;14.65;49.81;99990.12;4482835;32;34887;-84
2022/01/02 02:18:57;;;;;;;;;;;;;;;15.22;49.74;99994.97;4481097;32;36071;-84
2022/01/02 02:21:43;;;;;;;;;;;;;;;15.28;50.35;99988.94;4482604;32;35724;-84
2022/01/02 02:24:29;;;;;;;;;;;;;;;15.18;50.64;99989.72;4482544;32;34424;-85
2022/01/02 02:27:20;;;;;;;;;;;;;;;14.98;49.79;99982.59;4482749;31;34921;-86
2022/01/02 02:30:07;;;;;;;;;;;;;;;15.33;50.29;99984.59;4482643;32;35124;-86
2022/01/02 02:32:54;;;;;;;;;;;;;;;15.22;48.10;99979.28;4482216;32;34427;-84
2022/01/02 02:35:41;;;;;;;;;;;;;;;15.43;49.18;99983.78;4482762;32;35051;-88
2022/01/02 02:38:27;;;;;;;;;;;;;;;15.00;50.11;99982.59;4481252;32;34863;-84
2022/01/02 02:41:13;;;;;;;;;;;;;;;15.48;48.58;99974.22;4483636;32;35620;-82
2022/01/02 02:44:05;;;;;;;;;;;;;;;15.76;46.67;99963.97;4484273;32;34951;-83
2022/01/02 02:49:56;;;;;;;;;;;;;;;14.74;51.57;99962.41;4468960;32;34771;-86
2022/01/02 02:52:45;;;;;;;;;;;;;;;15.03;48.38;99960.00;4481715;32;36039;-87
2022/01/02 02:55:41;;;;;;;;;;;;;;;15.38;47.85;99963.72;4484597;32;35639;-82
2022/01/02 02:58:49;;;;;;;;;;;;;;;15.29;47.75;99961.94;4483099;32;34071;-88
2022/01/02 03:01:36;;;;;;;;;;;;;;;15.30;47.96;99971.50;4484622;32;34898;-84
2022/01/02 03:04:23;;;;;;;;;;;;;;;15.18;46.99;99972.28;4483360;32;34586;-84
2022/01/02 03:07:09;;;;;;;;;;;;;;;15.22;46.53;99970.59;4483146;32;35102;-83
2022/01/02 03:09:58;;;;;;;;;;;;;;;15.34;46.83;99965.44;4482381;32;35068;-82
2022/01/02 03:12:44;;;;;;;;;;;;;;;15.08;47.27;99953.09;4483676;32;34899;-85
2022/01/02 03:15:30;;;;;;;;;;;;;;;15.53;45.67;99956.88;4484144;32;34897;-83
2022/01/02 03:18:16;;;;;;;;;;;;;;;15.65;45.48;99955.19;4483952;32;34890;-86
2022/01/02 03:21:03;;;;;;;;;;;;;;;15.62;46.23;99952.53;4484193;32;34920;-84
2022/01/02 03:23:49;;;;;;;;;;;;;;;15.43;46.09;99952.44;4483919;32;34864;-85
2022/01/02 03:26:34;;;;;;;;;;;;;;;15.56;45.67;99946.41;4484345;32;35594;-83
2022/01/02 03:29:20;;;;;;;;;;;;;;;15.49;45.77;99946.34;4483872;32;34911;-83
2022/01/02 03:32:07;;;;;;;;;;;;;;;15.14;46.24;99939.19;4484154;32;34029;-86
2022/01/02 03:34:53;;;;;;;;;;;;;;;15.53;45.25;99941.19;4483907;32;34434;-85
2022/01/02 03:37:39;;;;;;;;;;;;;;;15.33;45.46;99946.28;4484331;32;36133;-81
2022/01/02 03:40:25;;;;;;;;;;;;;;;15.41;45.33;99941.09;4468575;32;34476;-83
2022/01/02 03:43:11;;;;;;;;;;;;;;;15.14;45.44;99936.56;4477044;32;34207;-84
2022/01/02 03:45:57;;;;;;;;;;;;;;;15.68;44.63;99921.22;4484077;32;34595;-82
2022/01/02 03:48:43;;;;;;;;;;;;;;;15.35;45.75;99922.78;4483923;31;35175;-85
2022/01/02 03:51:30;;;;;;;;;;;;;;;15.32;45.62;99922.75;4483862;32;34837;-83
2022/01/02 03:54:16;;;;;;;;;;;;;;;15.72;44.88;99920.34;4483690;32;33804;-84
2022/01/02 03:57:02;;;;;;;;;;;;;;;15.46;46.35;99934.16;4467038;32;35463;-84
2022/01/02 03:59:48;;;;;;;;;;;;;;;15.42;45.53;99936.72;4481541;32;35185;-85
2022/01/02 04:02:37;;;;;;;;;;;;;;;15.49;45.57;99935.91;4483663;32;35183;-83
2022/01/02 04:05:24;;;;;;;;;;;;;;;15.16;46.15;99931.38;4482950;32;35043;-84
2022/01/02 04:08:10;;;;;;;;;;;;;;;15.09;45.90;99923.50;4483741;32;35869;-85
2022/01/02 04:10:56;;;;;;;;;;;;;;;15.15;45.68;99925.25;4483498;32;35797;-82
2022/01/02 04:13:42;;;;;;;;;;;;;;;15.46;44.92;99934.16;4483589;32;35587;-85
2022/01/02 04:16:28;;;;;;;;;;;;;;;15.11;45.57;99938.28;4484229;32;33639;-86
2022/01/02 04:19:15;;;;;;;;;;;;;;;15.10;45.34;99940.03;4483030;32;35892;-86
2022/01/02 04:22:01;;;;;;;;;;;;;;;14.89;45.93;99935.56;4482366;32;35194;-84
2022/01/02 04:24:49;;;;;;;;;;;;;;;15.01;45.64;99932.16;4483863;32;35542;-83
2022/01/02 04:27:35;;;;;;;;;;;;;;;15.13;45.59;99931.34;4482461;32;34519;-83
2022/01/02 04:30:21;;;;;;;;;;;;;;;14.96;45.74;99932.09;4467018;32;35588;-83
2022/01/02 04:33:09;;;;;;;;;;;;;;;15.07;45.59;99943.50;4475641;32;35972;-83
2022/01/02 04:35:55;;;;;;;;;;;;;;;15.15;45.38;99940.94;4483238;32;34549;-84
2022/01/02 04:38:42;;;;;;;;;;;;;;;15.20;45.39;99938.38;4483871;32;34975;-84
2022/01/02 04:41:28;;;;;;;;;;;;;;;15.19;44.78;99936.59;4483558;32;34968;-83
2022/01/02 04:44:15;;;;;;;;;;;;;;;15.46;44.50;99936.78;4483169;32;35107;-87
2022/01/02 04:47:00;;;;;;;;;;;;;;;15.51;44.14;99940.28;4483699;31;35042;-83
2022/01/02 04:49:46;;;;;;;;;;;;;;;15.19;46.09;99941.81;4483777;32;35013;-85
2022/01/02 04:52:32;;;;;;;;;;;;;;;14.78;46.03;99938.06;4483694;32;34455;-84
2022/01/02 04:55:21;;;;;;;;;;;;;;;15.25;45.71;99936.66;4483521;31;35577;-86
2022/01/02 04:58:07;;;;;;;;;;;;;;;15.69;44.78;99933.44;4483505;32;34813;-84
2022/01/02 05:00:54;;;;;;;;;;;;;;;15.60;44.89;99928.12;4483153;32;35563;-87
2022/01/02 05:03:40;;;;;;;;;;;;;;;15.73;44.35;99928.22;4482901;32;34841;-84
2022/01/02 05:06:26;;;;;;;;;;;;;;;15.54;44.54;99928.97;4483534;32;36070;-85
2022/01/02 05:09:12;;;;;;;;;;;;;;;15.42;44.72;99919.34;4483606;32;34895;-83
2022/01/02 05:11:58;;;;;;;;;;;;;;;15.33;44.72;99922.75;4483450;32;34041;-86
2022/01/02 05:14:44;;;;;;;;;;;;;;;15.43;44.23;99921.09;4483354;32;34965;-84
2022/01/02 05:17:31;;;;;;;;;;;;;;;15.52;43.80;99915.03;4483633;32;35967;-85
2022/01/02 05:20:17;;;;;;;;;;;;;;;15.68;43.77;99916.87;4483388;32;34684;-85
2022/01/02 05:23:02;;;;;;;;;;;;;;;15.51;43.88;99916.75;4481692;32;34061;-83
2022/01/02 05:25:48;;;;;;;;;;;;;;;15.61;43.64;99907.25;4482910;32;34976;-84
2022/01/02 05:28:34;;;;;;;;;;;;;;;15.29;44.33;99907.06;4483416;32;36168;-87
2022/01/02 05:31:20;;;;;;;;;;;;;;;15.33;43.81;99914.06;4483186;32;34957;-87
2022/01/02 05:34:06;;;;;;;;;;;;;;;15.26;44.10;99918.34;4482914;31;34177;-83
2022/01/02 05:36:52;;;;;;;;;;;;;;;15.07;44.68;99919.97;4483189;32;35776;-83
2022/01/02 05:39:38;;;;;;;;;;;;;;;14.75;45.10;99913.69;4483055;32;34644;-84
2022/01/02 05:42:24;;;;;;;;;;;;;;;14.74;45.40;99914.56;4482707;32;34526;-83
2022/01/02 05:45:10;;;;;;;;;;;;;;;15.03;44.71;99905.16;4467540;32;34200;-83
2022/01/02 05:47:56;;;;;;;;;;;;;;;15.21;44.20;99906.16;4467684;32;34949;-83
2022/01/02 05:50:43;;;;;;;;;;;;;;;15.23;44.11;99901.81;4482998;32;34694;-83
2022/01/02 05:53:29;;;;;;;;;;;;;;;15.33;43.75;99896.63;4482551;32;35154;-83
2022/01/02 05:56:16;;;;;;;;;;;;;;;15.36;43.52;99893.19;4482330;32;34290;-85
2022/01/02 05:59:01;;;;;;;;;;;;;;;15.69;42.51;99892.50;4482148;32;35560;-83
2022/01/02 06:01:48;;;;;;;;;;;;;;;15.45;43.11;99897.56;4482804;32;35128;-84
2022/01/02 06:04:33;;;;;;;;;;;;;;;15.50;42.90;99891.50;4483036;32;34905;-83
2022/01/02 06:07:20;;;;;;;;;;;;;;;15.20;43.33;99886.13;4483055;32;33660;-83
2022/01/02 06:10:06;;;;;;;;;;;;;;;15.33;43.24;99887.94;4483024;32;34994;-83
2022/01/02 06:12:53;;;;;;;;;;;;;;;15.09;43.76;99891.28;4482340;32;36127;-84
2022/01/02 06:15:39;;;;;;;;;;;;;;;14.91;44.15;99889.44;4481799;32;34907;-86
2022/01/02 06:18:25;;;;;;;;;;;;;;;15.05;44.09;99887.78;4482648;32;34169;-87
2022/01/02 06:21:11;;;;;;;;;;;;;;;15.16;44.07;99890.47;4482321;32;35809;-83
2022/01/02 06:23:57;;;;;;;;;;;;;;;15.30;43.44;99887.91;4482449;32;35923;-86
2022/01/02 06:26:43;;;;;;;;;;;;;;;15.27;43.71;99887.91;4482598;32;34862;-86
2022/01/02 06:29:28;;;;;;;;;;;;;;;15.40;43.20;99884.47;4482767;32;33688;-84
2022/01/02 06:32:17;;;;;;;;;;;;;;;15.41;43.22;99881.00;4481856;32;34411;-84
2022/01/02 06:35:03;;;;;;;;;;;;;;;15.57;42.60;99887.19;4473612;32;36125;-84
2022/01/02 06:37:50;;;;;;;;;;;;;;;15.45;43.14;99892.34;4482000;32;34974;-83
2022/01/02 06:40:37;;;;;;;;;;;;;;;15.49;43.20;99900.22;4481193;32;34032;-84
2022/01/02 06:43:23;;;;;;;;;;;;;;;15.45;43.23;99897.56;4482429;32;35879;-86
2022/01/02 06:46:09;;;;;;;;;;;;;;;15.14;44.70;99886.09;4481351;32;35131;-83
2022/01/02 06:48:56;;;;;;;;;;;;;;;15.39;44.07;99898.41;4481427;32;35404;-84
2022/01/02 06:52:03;;;;;;;;;;;;;;;15.53;43.86;99886.31;4482116;32;35208;-85
2022/01/02 06:54:53;;;;;;;;;;;;;;;15.63;43.16;99891.56;4475489;32;34851;-86
2022/01/02 06:57:39;;;;;;;;;;;;;;;15.58;43.35;99897.62;4482241;32;33632;-86
2022/01/02 07:00:25;;;;;;;;;;;;;;;15.49;43.61;99899.31;4482141;32;34918;-85
2022/01/02 07:03:11;;;;;;;;;;;;;;;15.56;43.57;99894.13;4481809;32;34123;-86
2022/01/02 07:05:59;;;;;;;;;;;;;;;15.45;43.60;99895.81;4480395;32;34960;-82
2022/01/02 07:08:45;;;;;;;;;;;;;;;15.34;44.05;99905.34;4482241;32;36126;-83
2022/01/02 07:11:31;;;;;;;;;;;;;;;15.14;44.58;99905.25;4482044;32;35752;-85
2022/01/02 07:14:17;;;;;;;;;;;;;;;14.58;45.97;99905.69;4480495;32;33633;-82
2022/01/02 07:17:03;;;;;;;;;;;;;;;14.56;46.29;99903.09;4481629;32;34646;-87
2022/01/02 07:19:48;;;;;;;;;;;;;;;14.33;46.82;99910.69;4482027;32;35715;-86
2022/01/02 07:22:34;;;;;;;;;;;;;;;13.91;48.02;99911.13;4481826;32;34974;-86
2022/01/02 07:25:20;;;;;;;;;;;;;;;13.62;48.83;99910.75;4481929;32;34851;-86
2022/01/02 07:28:06;;;;;;;;;;;;;;;13.75;48.33;99914.38;4483796;31;35758;-86
2022/01/02 07:30:52;;;;;;;;;;;;;;;14.33;46.93;99917.63;4483825;32;35076;-84
2022/01/02 07:33:37;;;;;;;;;;;;;;;14.50;46.37;99903.03;4483861;32;34517;-83
2022/01/02 07:36:23;;;;;;;;;;;;;;;14.53;46.17;99900.44;4483997;32;33558;-84
2022/01/02 07:39:09;;;;;;;;;;;;;;;14.02;47.35;99898.22;4473886;32;34575;-86
2022/01/02 07:41:55;;;;;;;;;;;;;;;14.17;47.18;99898.34;4482020;32;34777;-83
2022/01/02 07:44:43;;;;;;;;;;;;;;;14.41;46.96;99892.47;4479333;32;36351;-85
2022/01/02 07:47:29;;;;;;;;;;;;;;;14.40;47.30;99887.28;4483998;31;34259;-85
2022/01/02 07:50:15;;;;;;;;;;;;;;;14.66;46.86;99903.16;4483977;32;34475;-84
2022/01/02 07:53:01;;;;;;;;;;;;;;;14.45;47.66;99894.25;4484189;32;36128;-84
2022/01/02 07:55:46;;;;;;;;;;;;;;;14.69;47.31;99897.97;4468168;32;34983;-86
2022/01/02 07:58:32;;;;;;;;;;;;;;;14.61;47.79;99895.28;4481452;32;34123;-86
2022/01/02 08:01:21;;;;;;;;;;;;;;;14.72;47.75;99893.63;4482751;32;34603;-84
2022/01/02 08:04:07;;;;;;;;;;;;;;;14.88;47.39;99896.34;4483326;32;35179;-85
2022/01/02 08:06:53;;;;;;;;;;;;;;;14.75;48.05;99892.81;4482968;32;34968;-83
2022/01/02 08:09:39;;;;;;;;;;;;;;;15.04;47.37;99885.19;4483549;32;34588;-86
2022/01/02 08:12:25;;;;;;;;;;;;;;;15.29;46.86;99879.19;4483576;32;34499;-86
2022/01/02 08:15:11;;;;;;;;;;;;;;;15.26;46.80;99883.53;4484082;32;34637;-85
2022/01/02 08:17:57;;;;;;;;;;;;;;;15.44;46.59;99874.91;4483713;32;34856;-82
2022/01/02 08:20:46;;;;;;;;;;;;;;;15.07;47.44;99865.16;4483775;32;34077;-87
2022/01/02 08:23:33;;;;;;;;;;;;;;;14.87;48.66;99863.28;4483166;32;35774;-87
2022/01/02 08:26:38;;;;;;;;;;;;;;;14.75;49.47;99866.69;4483783;32;36017;-84
2022/01/02 08:29:24;;;;;;;;;;;;;;;14.60;49.63;99870.94;4481984;32;35802;-85
2022/01/02 08:32:10;;;;;;;;;;;;;;;14.60;50.19;99868.31;4481582;31;34960;-85
2022/01/02 08:34:56;;;;;;;;;;;;;;;14.94;49.39;99868.56;4483569;32;34625;-83
2022/01/02 08:37:42;;;;;;;;;;;;;;;14.92;49.33;99869.41;4483299;32;35222;-86
2022/01/02 08:40:28;;;;;;;;;;;;;;;15.02;49.61;99871.22;4480512;32;35777;-84
2022/01/02 08:43:14;;;;;;;;;;;;;;;15.36;48.78;99872.28;4483144;32;34379;-88
2022/01/02 08:45:59;;;;;;;;;;;;;;;14.99;49.38;99872.06;4483697;32;34540;-84
2022/01/02 08:48:46;;;;;;;;;;;;;;;14.80;50.17;99868.47;4483334;32;36104;-85
2022/01/02 08:51:31;;;;;;;;;;;;;;;15.02;49.71;99855.56;4482136;32;34886;-84
2022/01/02 08:54:17;;;;;;;;;;;;;;;15.03;49.38;99858.16;4483453;32;34165;-83
2022/01/02 08:57:03;;;;;;;;;;;;;;;14.60;50.41;99857.88;4483498;32;35534;-89
2022/01/02 08:59:49;;;;;;;;;;;;;;;14.52;50.45;99859.56;4482971;32;35735;-85
2022/01/02 09:02:39;;;;;;;;;;;;;;;14.72;50.32;99856.22;4480443;32;34718;-86
2022/01/02 09:05:26;;;;;;;;;;;;;;;15.28;48.62;99847.84;4482093;32;34909;-89
2022/01/02 09:08:12;;;;;;;;;;;;;;;15.17;49.13;99854.75;4483327;32;34921;-86
2022/01/02 09:10:58;;;;;;;;;;;;;;;15.12;49.55;99846.91;4483215;32;35910;-86
2022/01/02 09:13:43;;;;;;;;;;;;;;;14.61;49.25;99848.31;4482085;32;35065;-87
2022/01/02 09:16:30;;;;;;;;;;;;;;;15.26;48.32;99852.19;4475406;32;33935;-83
2022/01/02 09:19:15;;;;;;;;;;;;;;;15.52;48.09;99842.72;4471675;32;34971;-83
2022/01/02 09:22:02;;;;;;;;;;;;;;;15.91;47.03;99829.78;4471054;32;34683;-85
2022/01/02 09:24:48;;;;;;;;;;;;;;;14.55;50.26;99838.72;4478294;32;35761;-84
2022/01/02 09:27:35;;;;;;;;;;;;;;;15.27;48.74;99840.91;4483155;32;33722;-82
2022/01/02 09:30:24;;;;;;;;;;;;;;;15.30;48.20;99840.87;4483002;32;35788;-84
2022/01/02 09:33:10;;;;;;;;;;;;;;;14.74;48.60;99834.50;4477590;32;36037;-82
2022/01/02 09:35:56;;;;;;;;;;;;;;;15.61;46.44;99835.78;4471530;32;34837;-87
2022/01/02 09:38:43;;;;;;;;;;;;;;;15.43;48.40;99853.16;4472141;32;35143;-83
2022/01/02 09:41:29;;;;;;;;;;;;;;;14.89;49.66;99844.19;4475989;32;34958;-86
2022/01/02 09:44:15;;;;;;;;;;;;;;;15.87;46.52;99813.22;4482809;32;36070;-85
2022/01/02 09:47:01;;;;;;;;;;;;;;;16.30;44.56;99810.66;4482439;31;34783;-87
2022/01/02 09:49:47;;;;;;;;;;;;;;;16.72;43.62;99795.75;4481022;32;35009;-85
2022/01/02 09:52:36;;;;;;;;;;;;;;;16.85;43.26;99791.38;4474906;32;34862;-83
2022/01/02 09:55:03;;;;;;;;;;;;;;;15.82;45.31;99784.44;4481429;32;34430;-83
2022/01/02 09:57:31;;;;;;;;;;;;;;;15.76;45.35;99783.59;4480560;32;34029;-87
2022/01/02 09:59:58;;;;;;;;;;;;;;;16.25;45.45;99770.50;4482466;32;34073;-86
2022/01/02 10:02:25;;;;;;;;;;;;;;;16.97;42.92;99755.56;4482996;32;34336;-83
2022/01/02 10:05:01;;;;;;;;;;;;;;;17.28;42.11;99760.69;4483013;32;34349;-90
2022/01/02 10:07:30;;;;;;;;;;;;;;;16.50;44.63;99766.13;4482174;32;34849;-87
2022/01/02 10:09:58;;;;;;;;;;;;;;;15.97;45.10;99765.28;4477704;32;34402;-90
2022/01/02 10:12:29;;;;;;;;;;;;;;;16.26;45.59;99765.28;4482004;32;33966;-89
2022/01/02 10:15:19;;;;;;;;;;;;;;;16.28;44.03;99763.53;4476165;32;35287;-84
2022/01/02 10:17:49;;;;;;;;;;;;;;;16.49;43.73;99754.78;4470543;32;34098;-87
2022/01/02 10:20:16;;;;;;;;;;;;;;;16.96;43.03;99764.28;4480171;32;33618;-85
2022/01/02 10:23:02;;;;;;;;;;;;;;;16.30;45.08;99760.94;4471836;32;35227;-88
2022/01/02 10:25:40;;;;;;;;;;;;;;;17.27;42.56;99749.34;4477256;32;35319;-86
2022/01/02 10:28:18;;;;;;;;;;;;;;;16.79;43.46;99745.16;4478544;32;34269;-84
2022/01/02 10:30:46;;;;;;;;;;;;;;;17.22;42.08;99740.59;4481320;32;34485;-88
2022/01/02 10:33:13;;;;;;;;;;;;;;;17.80;40.88;99728.91;4480127;32;34173;-84
2022/01/02 10:35:41;;;;;;;;;;;;;;;17.63;41.70;99717.66;4480579;32;34095;-86
2022/01/02 10:38:18;;;;;;;;;;;;;;;17.16;41.66;99705.69;4481080;32;33854;-86
2022/01/02 10:40:47;;;;;;;;;;;;;;;17.19;42.08;99697.81;4481311;32;32944;-90
2022/01/02 10:43:26;;;;;;;;;;;;;;;16.69;43.50;99701.50;4482534;32;33998;-90
2022/01/02 10:45:55;;;;;;;;;;;;;;;16.43;43.44;99709.44;4482258;31;34940;-89
2022/01/02 10:48:43;;;;;;;;;;;;;;;16.66;43.45;99712.84;4482569;32;34261;-86
2022/01/02 10:51:13;;;;;;;;;;;;;;;16.77;42.98;99702.38;4482442;32;33569;-90
2022/01/02 10:53:54;;;;;;;;;;;;;;;16.91;43.25;99697.97;4482170;32;34357;-88
2022/01/02 10:56:26;;;;;;;;;;;;;;;16.40;43.99;99696.34;4481184;32;34311;-87
2022/01/02 10:58:59;;;;;;;;;;;;;;;16.32;43.45;99685.91;4480797;32;34147;-87
2022/01/02 11:01:26;;;;;;;;;;;;;;;16.87;42.63;99685.78;4483006;32;33717;-85
2022/01/02 11:03:54;;;;;;;;;;;;;;;16.62;42.96;99687.56;4470610;32;33549;-84
2022/01/02 11:06:26;;;;;;;;;;;;;;;16.64;43.40;99685.81;4482985;32;33911;-85
2022/01/02 11:08:55;;;;;;;;;;;;;;;16.78;43.00;99676.22;4483355;32;33951;-86
2022/01/02 11:11:22;;;;;;;;;;;;;;;16.56;43.43;99674.53;4484377;32;33645;-84
2022/01/02 11:13:50;;;;;;;;;;;;;;;16.40;44.35;99676.31;4482813;32;34046;-83
2022/01/02 11:16:18;;;;;;;;;;;;;;;16.53;44.18;99664.91;4483163;32;33810;-86
2022/01/02 11:18:46;;;;;;;;;;;;;;;16.39;44.89;99656.22;4484427;32;34550;-84
2022/01/02 11:21:13;;;;;;;;;;;;;;;16.22;44.75;99666.75;4484343;32;32870;-87
2022/01/02 11:23:52;;;;;;;;;;;;;;;16.86;44.19;99650.00;4484441;32;34901;-86
2022/01/02 11:26:38;;;;;;;;;;;;;;;16.51;44.96;99653.56;4482942;32;35186;-84
2022/01/02 11:29:13;;;;;;;;;;;;;;;16.95;43.79;99647.31;4484640;32;33738;-88
2022/01/02 11:31:43;;;;;;;;;;;;;;;17.04;43.84;99630.66;4483037;32;33563;-83
2022/01/02 11:34:26;;;;;;;;;;;;;;;16.88;44.13;99629.88;4484388;32;34862;-86
2022/01/02 11:37:18;;;;;;;;;;;;;;;16.84;44.24;99622.94;4482908;32;34396;-84
2022/01/02 11:40:14;;;;;;;;;;;;;;;17.19;43.73;99629.69;4473210;32;33130;-83
2022/01/02 11:42:42;;;;;;;;;;;;;;;16.15;46.15;99627.53;4470781;31;32737;-83
2022/01/02 11:45:11;;;;;;;;;;;;;;;15.76;47.43;99611.06;4483700;32;34003;-84
2022/01/02 11:48:00;;;;;;;;;;;;;;;15.78;46.91;99610.16;4483666;32;34038;-85
2022/01/02 11:50:30;;;;;;;;;;;;;;;16.52;45.65;99607.34;4484230;32;33628;-84
2022/01/02 11:53:23;;;;;;;;;;;;;;;16.26;46.57;99608.31;4484198;32;33355;-88
2022/01/02 11:55:52;;;;;;;;;;;;;;;16.18;46.23;99601.38;4483856;32;34119;-84
2022/01/02 11:58:37;;;;;;;;;;;;;;;16.30;46.50;99589.13;4483986;32;34480;-84
2022/01/02 12:01:05;;;;;;;;;;;;;;;16.32;46.26;99585.62;4483937;32;34134;-88
2022/01/02 12:03:38;;;;;;;;;;;;;;;16.85;45.05;99577.53;4484215;32;33321;-85
2022/01/02 12:06:20;;;;;;;;;;;;;;;15.58;47.67;99584.00;4484068;32;34931;-86
2022/01/02 12:08:47;;;;;;;;;;;;;;;16.74;44.88;99584.56;4470400;32;33223;-87
2022/01/02 12:11:30;;;;;;;;;;;;;;;15.86;46.35;99581.37;4482701;32;34563;-87
2022/01/02 12:14:07;;;;;;;;;;;;;;;16.14;46.16;99576.06;4483110;32;33672;-83
2022/01/02 12:16:36;;;;;;;;;;;;;;;16.66;44.93;99570.62;4484031;32;35018;-84
2022/01/02 12:19:03;;;;;;;;;;;;;;;16.67;44.92;99561.91;4482746;32;34344;-86
2022/01/02 12:21:32;;;;;;;;;;;;;;;16.37;45.62;99553.34;4484127;32;34102;-84
2022/01/02 12:24:00;;;;;;;;;;;;;;;16.33;45.79;99543.75;4483956;32;34300;-83
2022/01/02 12:26:29;;;;;;;;;;;;;;;16.35;45.94;99544.59;4483978;32;34018;-88
2022/01/02 12:29:06;;;;;;;;;;;;;;;16.17;46.49;99542.06;4483997;32;33849;-85
2022/01/02 12:31:41;;;;;;;;;;;;;;;16.83;45.25;99541.78;4484128;32;35039;-83
2022/01/02 12:34:17;;;;;;;;;;;;;;;17.17;44.40;99527.53;4483781;32;33565;-87
2022/01/02 12:36:46;;;;;;;;;;;;;;;16.76;45.25;99530.47;4483702;32;34232;-84
2022/01/02 12:39:20;;;;;;;;;;;;;;;16.82;45.18;99525.19;4483586;32;34403;-87
2022/01/02 12:41:47;;;;;;;;;;;;;;;16.54;45.96;99525.31;4482578;32;34035;-84
2022/01/02 12:44:15;;;;;;;;;;;;;;;17.25;44.80;99522.22;4483526;32;33307;-84
2022/01/02 12:46:44;;;;;;;;;;;;;;;17.30;45.17;99523.06;4483620;31;34181;-88
2022/01/02 12:49:12;;;;;;;;;;;;;;;16.68;46.04;99533.09;4483703;32;34579;-87
2022/01/02 12:51:41;;;;;;;;;;;;;;;16.89;45.48;99531.25;4483626;32;34109;-86
2022/01/02 12:54:10;;;;;;;;;;;;;;;16.36;46.42;99522.78;4484107;32;32763;-85
2022/01/02 12:56:40;;;;;;;;;;;;;;;16.77;45.70;99537.44;4483740;32;33972;-85
2022/01/02 12:59:22;;;;;;;;;;;;;;;16.34;47.59;99521.94;4483833;32;34191;-87
2022/01/02 13:01:57;;;;;;;;;;;;;;;16.69;46.46;99518.25;4483711;32;34710;-85
2022/01/02 13:04:27;;;;;;;;;;;;;;;16.00;47.75;99516.84;4482348;32;33005;-88
2022/01/02 13:06:56;;;;;;;;;;;;;;;15.36;49.83;99513.50;4470086;32;33320;-87
2022/01/02 13:09:36;;;;;;;;;;;;;;;16.05;48.57;99516.81;4483358;32;34370;-84
2022/01/02 13:12:06;;;;;;;;;;;;;;;16.20;48.33;99519.38;4483714;32;33875;-85
2022/01/02 13:14:46;;;;;;;;;;;;;;;16.61;47.38;99520.91;4482321;32;32971;-85
2022/01/02 13:17:20;;;;;;;;;;;;;;;17.09;46.34;99512.78;4483928;32;33808;-85
2022/01/02 13:19:49;;;;;;;;;;;;;;;17.40;45.75;99513.37;4483676;32;33750;-84
2022/01/02 13:22:18;;;;;;;;;;;;;;;18.19;43.84;99501.16;4483460;32;33748;-87
2022/01/02 13:24:45;;;;;;;;;;;;;;;16.84;47.09;99507.72;4482867;32;33882;-85
2022/01/02 13:27:12;;;;;;;;;;;;;;;17.25;46.12;99503.91;4483449;32;33293;-84
2022/01/02 13:29:40;;;;;;;;;;;;;;;16.83;47.21;99498.13;4483484;32;34233;-84
2022/01/02 13:32:11;;;;;;;;;;;;;;;17.77;45.13;99481.53;4483612;32;33404;-87
2022/01/02 13:34:38;;;;;;;;;;;;;;;17.57;45.50;99485.22;4482214;32;32280;-86
2022/01/02 13:37:05;;;;;;;;;;;;;;;17.68;45.46;99487.72;4483373;32;33876;-88
2022/01/02 13:39:39;;;;;;;;;;;;;;;17.76;45.14;99478.06;4483435;32;34227;-85
2022/01/02 13:42:06;;;;;;;;;;;;;;;17.95;44.84;99474.31;4483427;32;35658;-85
2022/01/02 13:44:38;;;;;;;;;;;;;;;17.66;45.51;99477.28;4483344;32;32736;-84
2022/01/02 13:47:05;;;;;;;;;;;;;;;17.33;46.22;99470.62;4483361;31;33939;-87
2022/01/02 13:49:42;;;;;;;;;;;;;;;17.79;44.99;99469.28;4483214;32;34528;-87
2022/01/02 13:52:09;;;;;;;;;;;;;;;17.04;47.10;99473.50;4483151;32;34585;-85
2022/01/02 13:54:37;;;;;;;;;;;;;;;17.23;46.66;99463.72;4483232;32;33708;-85
2022/01/02 13:57:06;;;;;;;;;;;;;;;17.47;46.13;99466.13;4481931;32;34182;-87
2022/01/02 13:59:34;;;;;;;;;;;;;;;17.52;46.06;99468.69;4483304;32;35347;-87
2022/01/02 14:02:01;;;;;;;;;;;;;;;17.83;45.32;99465.75;4483147;32;33807;-84
2022/01/02 14:04:49;;;;;;;;;;;;;;;17.79;45.29;99477.16;4483623;32;32951;-88
2022/01/02 14:07:16;;;;;;;;;;;;;;;17.74;45.53;99482.44;4483076;32;34152;-85
2022/01/02 14:09:51;;;;;;;;;;;;;;;17.45;46.15;99480.97;4483235;32;33970;-86